地図

経路データ

SID SEASON NUMBER BASIN SUBBASIN NAME ISO_TIME NATURE LAT LON WMO_WIND WMO_PRES WMO_AGENCY TRACK_TYPE DIST2LAND LANDFALL IFLAG USA_AGENCY USA_ATCF_ID USA_LAT USA_LON USA_RECORD USA_STATUS USA_WIND USA_PRES USA_SSHS USA_R34_NE USA_R34_SE USA_R34_SW USA_R34_NW USA_R50_NE USA_R50_SE USA_R50_SW USA_R50_NW USA_R64_NE USA_R64_SE USA_R64_SW USA_R64_NW USA_POCI USA_ROCI USA_RMW USA_EYE TOKYO_LAT TOKYO_LON TOKYO_GRADE TOKYO_WIND TOKYO_PRES TOKYO_R50_DIR TOKYO_R50_LONG TOKYO_R50_SHORT TOKYO_R30_DIR TOKYO_R30_LONG TOKYO_R30_SHORT TOKYO_LAND CMA_LAT CMA_LON CMA_CAT CMA_WIND CMA_PRES HKO_LAT HKO_LON HKO_CAT HKO_WIND HKO_PRES NEWDELHI_LAT NEWDELHI_LON NEWDELHI_GRADE NEWDELHI_WIND NEWDELHI_PRES NEWDELHI_CI NEWDELHI_DP NEWDELHI_POCI REUNION_LAT REUNION_LON REUNION_TYPE REUNION_WIND REUNION_PRES REUNION_TNUM REUNION_CI REUNION_RMW REUNION_R34_NE REUNION_R34_SE REUNION_R34_SW REUNION_R34_NW REUNION_R50_NE REUNION_R50_SE REUNION_R50_SW REUNION_R50_NW REUNION_R64_NE REUNION_R64_SE REUNION_R64_SW REUNION_R64_NW BOM_LAT BOM_LON BOM_TYPE BOM_WIND BOM_PRES BOM_TNUM BOM_CI BOM_RMW BOM_R34_NE BOM_R34_SE BOM_R34_SW BOM_R34_NW BOM_R50_NE BOM_R50_SE BOM_R50_SW BOM_R50_NW BOM_R64_NE BOM_R64_SE BOM_R64_SW BOM_R64_NW BOM_ROCI BOM_POCI BOM_EYE BOM_POS_METHOD BOM_PRES_METHOD NADI_LAT NADI_LON NADI_CAT NADI_WIND NADI_PRES WELLINGTON_LAT WELLINGTON_LON WELLINGTON_WIND WELLINGTON_PRES DS824_LAT DS824_LON DS824_STAGE DS824_WIND DS824_PRES TD9636_LAT TD9636_LON TD9636_STAGE TD9636_WIND TD9636_PRES TD9635_LAT TD9635_LON TD9635_WIND TD9635_PRES TD9635_ROCI NEUMANN_LAT NEUMANN_LON NEUMANN_CLASS NEUMANN_WIND NEUMANN_PRES MLC_LAT MLC_LON MLC_CLASS MLC_WIND MLC_PRES USA_GUST BOM_GUST BOM_GUST_PER REUNION_GUST REUNION_GUST_PER USA_SEAHGT USA_SEARAD_NE USA_SEARAD_SE USA_SEARAD_SW USA_SEARAD_NW STORM_SPEED STORM_DIR
1975024S19178 1975 14 SP MM VAL 1975-01-24 00:00:00 TS -18.7000 178.400 main 49 39 O________OO_O_ jtwc_sh SH161975 -18.7000 178.400 -1 -18.7000 178.400 TC 35 -18.7000 178.400 2 -18.7000 178.400 TC 35 6 45
1975024S19178 1975 14 SP MM VAL 1975-01-24 03:00:00 TS -18.4957 178.614 main 39 24 P________PP_P_ SH161975 -18.5026 178.613 -1 -18.5026 178.613 TC 35 -18.4753 178.620 2 -18.5026 178.613 TC 35 6 43
1975024S19178 1975 14 SP MM VAL 1975-01-24 06:00:00 TS -18.2901 178.803 main 24 15 O________OP_O_ jtwc_sh SH161975 -18.3000 178.800 -1 -18.3000 178.800 TC 35 -18.2603 178.811 2 -18.3000 178.800 TC 35 5 37
1975024S19178 1975 14 SP MM VAL 1975-01-24 09:00:00 TS -18.0856 178.940 main 21 21 P________PP_P_ SH161975 -18.0925 178.938 -1 -18.0925 178.938 TC 35 -18.0651 178.947 2 -18.0925 178.938 TC 35 4 25
1975024S19178 1975 14 SP MM VAL 1975-01-24 12:00:00 TS -17.9000 179.000 main 38 38 O________OO_O_ jtwc_sh SH161975 -17.9000 179.000 -1 -17.9000 179.000 TC 35 -17.9000 179.000 2 -17.9000 179.000 TC 35 3 6
1975024S19178 1975 14 SP MM VAL 1975-01-24 15:00:00 TS -17.7541 178.974 main 42 31 P________PP_P_ SH161975 -17.7500 178.980 -1 -17.7500 178.980 TC 35 -17.7665 178.957 2 -17.7500 178.980 TC 35 3 341
1975024S19178 1975 14 SP MM VAL 1975-01-24 18:00:00 TS -17.6081 178.889 main 31 21 O________OP_O_ jtwc_sh SH161975 -17.6000 178.900 -1 -17.6000 178.900 TC 35 -17.6325 178.857 2 -17.6000 178.900 TC 35 4 328
1975024S19178 1975 14 SP MM VAL 1975-01-24 21:00:00 TS -17.4499 178.773 main 30 22 P________PP_P_ SH161975 -17.4450 178.777 -1 -17.4450 178.777 TC 35 -17.4571 178.753 2 -17.4525 178.785 TC 35 4 336
1975024S19178 1975 14 SP MM VAL 1975-01-25 00:00:00 TS -17.2000 178.700 main 22 0 O________OO_O_ jtwc_sh SH161975 -17.2000 178.700 -1 -17.2000 178.700 TC 35 -17.2000 178.700 2 -17.2000 178.700 TC 35 7 357
1975024S19178 1975 14 SP MM VAL 1975-01-25 03:00:00 TS -16.7724 178.736 main 0 0 P________PP_P_ SH161975 -16.7950 178.763 -1 -16.7950 178.763 TC 35 -16.8000 178.760 2 -16.7375 178.705 TC 35 10 9
1975024S19178 1975 14 SP MM VAL 1975-01-25 06:00:00 TS -16.2623 178.848 main 30 30 O________OP_O_ jtwc_sh SH161975 -16.3000 178.900 -1 -16.3000 178.900 TC 35 -16.3192 178.876 2 -16.2000 178.800 TC 35 11 13
1975024S19178 1975 14 SP MM VAL 1975-01-25 09:00:00 TS -15.7436 178.980 main 85 85 P________PP_P_ SH161975 -15.7624 179.012 -1 -15.7624 179.012 TC 35 -15.8038 179.029 2 -15.7124 178.948 TC 35 10 19
1975024S19178 1975 14 SP MM VAL 1975-01-25 12:00:00 TS -15.3000 179.200 main 116 116 O________OO_O_ jtwc_sh SH161975 -15.3000 179.200 -1 -15.3000 179.200 TC 35 -15.3000 179.200 2 -15.3000 179.200 TC 35 9 37
1975024S19178 1975 14 SP MM VAL 1975-01-25 15:00:00 TS -15.0334 179.531 main 138 134 P________PP_P_ SH161975 -15.0474 179.490 -1 -15.0474 179.490 TC 35 -14.8839 179.331 2 -14.9975 179.555 TC 35 9 59
1975024S19178 1975 14 SP MM VAL 1975-01-25 18:00:00 TS -14.8670 179.957 main 145 145 O________OP_O_ jtwc_sh SH161975 -14.9000 179.900 -1 -14.9000 179.900 TC 35 -14.5001 179.467 2 -14.8000 180.000 TC 35 8 67
1975024S19178 1975 14 SP MM VAL 1975-01-25 21:00:00 TS -14.7135 180.324 main 173 173 P________PP_P_ SH161975 -14.7410 -179.715 -1 -14.7410 -179.715 TC 35 -14.1483 179.607 2 -14.6533 -179.665 TC 35 10 75
1975024S19178 1975 14 SP MM VAL 1975-01-26 00:00:00 TS -14.6000 181.000 main 214 214 O________OP_O_ jtwc_sh SH161975 -14.6000 -179.000 -1 -14.6000 181.000 TC 35 -13.8287 179.751 2 -14.6000 -179.000 TC 35 20 85
1975024S19178 1975 14 SP MM VAL 1975-01-26 03:00:00 TS -14.5308 182.354 main 328 328 P________PP_P_ SH161975 -14.4514 -177.662 -1 -14.4514 -177.662 TC 35 -13.5413 179.901 2 -14.6894 -177.614 TC 35 28 87
1975024S19178 1975 14 SP MM VAL 1975-01-26 06:00:00 TS -14.4333 183.933 main 370 204 O________OP_O_ jtwc_sh SH161975 -14.3000 -176.100 -1 -14.3000 183.900 TC 35 -13.2860 -179.943 2 -14.7000 -176.000 TC 35 32 85
1975024S19178 1975 14 SP MM VAL 1975-01-26 09:00:00 TS -14.2398 185.623 main 189 94 P________PP_P_ SH161975 -14.1657 -174.395 -1 -14.1657 -174.395 TC 35 -13.0628 -179.782 2 -14.3879 -174.343 TC 35 25 80
1975024S19178 1975 14 SP MM VAL 1975-01-26 12:00:00 TS -14.0000 186.500 main 94 87 O________OP_O_ jtwc_sh SH161975 -14.0000 -173.500 -1 -14.0000 186.500 TC 35 -12.8717 -179.614 2 -14.0000 -173.500 TC 35 5 4
1975024S19178 1975 14 SP MM VAL 1975-01-26 15:00:00 TS -13.7747 185.663 main 165 165 P________PP_P_ SH161975 -13.7657 -174.354 -1 -13.7657 -174.354 TC 35 -12.7127 -179.440 2 -13.7928 -174.303 TC 35 24 281
1975024S19178 1975 14 SP MM VAL 1975-01-26 18:00:00 TS -13.5333 184.033 main 346 346 O________OP_O_ jtwc_sh SH161975 -13.5000 -176.000 -1 -13.5000 184.000 TC 35 -12.5858 -179.258 2 -13.6000 -175.900 TC 35 32 279
1975024S19178 1975 14 SP MM VAL 1975-01-26 21:00:00 TS -13.2585 182.459 main 428 387 P________PP_P_ SH161975 -13.2367 -177.560 -1 -13.2367 -177.560 TC 35 -12.4911 -179.070 2 -13.3020 -177.503 TC 35 27 281
1975024S19178 1975 14 SP MM VAL 1975-01-27 00:00:00 TS -13.0000 181.300 main 388 384 O________OP_O_ jtwc_sh SH161975 -13.0000 -178.700 -1 -13.0000 181.300 TC 35 -12.4286 -178.873 2 -13.0000 -178.700 TC 35 13 291
1975024S19178 1975 14 SP MM VAL 1975-01-27 03:00:00 TS -12.8054 181.230 main 405 405 P________PP_P_ SH161975 -12.8265 -178.782 -1 -12.8265 -178.782 TC 35 -12.3981 -178.668 2 -12.7614 -178.789 TC 35 4 41
1975024S19178 1975 14 SP MM VAL 1975-01-27 06:00:00 TS -12.6646 181.594 main 432 432 O________OP_O_ jtwc_sh SH161975 -12.7000 -178.400 -1 -12.7000 181.600 TC 35 -12.3999 -178.454 2 -12.6000 -178.400 TC 35 6 64
1975024S19178 1975 14 SP MM VAL 1975-01-27 09:00:00 TS -12.5468 181.781 main 462 462 P________PP_P_ SH161975 -12.5700 -178.215 -1 -12.5700 -178.215 TC 35 -12.4338 -178.232 2 -12.5050 -178.215 TC 37 4 67
1975024S19178 1975 14 SP MM VAL 1975-01-27 12:00:00 TS -12.5000 182.000 main 472 472 O________OO_O_ jtwc_sh SH161975 -12.5000 -178.000 -1 -12.5000 182.000 TC 35 -12.5000 -178.000 2 -12.5000 -178.000 TC 40 4 87
1975024S19178 1975 14 SP MM VAL 1975-01-27 15:00:00 TS -12.5262 182.239 main 482 478 P________PP_P_ SH161975 -12.5050 -177.757 -1 -12.5050 -177.757 TC 35 -12.5557 -177.758 2 -12.5700 -177.758 TC 45 5 105
1975024S19178 1975 14 SP MM VAL 1975-01-27 18:00:00 TS -12.6306 182.494 main 490 481 O________OP_O_ jtwc_sh SH161975 -12.6000 -177.500 -1 -12.6000 182.500 TC 35 -12.6548 -177.509 2 -12.7000 -177.500 TC 50 6 118
1975024S19178 1975 14 SP MM VAL 1975-01-27 21:00:00 TS -12.7841 182.745 main 485 458 P________PP_P_ SH161975 -12.7625 -177.250 -1 -12.7625 -177.250 TC 50 -12.8016 -177.255 2 -12.8275 -177.257 TC 47 6 127
1975024S19178 1975 14 SP MM VAL 1975-01-28 00:00:00 TS -13.0000 183.000 main 458 422 O________OO_O_ jtwc_sh SH161975 -13.0000 -177.000 -1 -13.0000 183.000 TC 65 -13.0000 -177.000 4 -13.0000 -177.000 TC 45 7 133
1975024S19178 1975 14 SP MM VAL 1975-01-28 03:00:00 TS -13.2752 183.285 main 422 400 P________PP_P_ SH161975 -13.2850 -176.750 -1 -13.2850 -176.750 TC 65 -13.3108 -176.669 4 -13.2200 -176.693 TC 42 8 137
1975024S19178 1975 14 SP MM VAL 1975-01-28 06:00:00 TS -13.5900 183.562 main 389 369 O________OP_O_ jtwc_sh SH161975 -13.6000 -176.500 -1 -13.6000 183.500 TC 65 -13.6602 -176.351 4 -13.5000 -176.400 TC 40 9 141
1975024S19178 1975 14 SP MM VAL 1975-01-28 09:00:00 TS -13.9449 183.847 main 370 352 P________PP_P_ SH161975 -13.9526 -176.190 -1 -13.9526 -176.190 TC 65 -13.9794 -176.107 4 -13.8950 -176.125 TC 37 7 145
1975024S19178 1975 14 SP MM VAL 1975-01-28 12:00:00 TS -14.2000 184.000 main 354 354 O________OO_O_ jtwc_sh SH161975 -14.2000 -176.000 -1 -14.2000 184.000 TC 65 -14.2000 -176.000 4 -14.2000 -176.000 TC 35 3 173
1975024S19178 1975 14 SP MM VAL 1975-01-28 15:00:00 TS -14.2053 183.892 main 364 364 P________PP_P_ SH161975 -14.2099 -176.060 -1 -14.2099 -176.060 TC 65 -14.1762 -176.151 4 -14.2251 -176.162 TC 35 4 288
1975024S19178 1975 14 SP MM VAL 1975-01-28 18:00:00 TS -14.0895 183.642 main 394 393 O________OP_O_ jtwc_sh SH161975 -14.1000 -176.300 -1 -14.1000 183.700 TC 65 -14.0580 -176.433 4 -14.1000 -176.400 TC 35 6 297
1975024S19178 1975 14 SP MM VAL 1975-01-28 21:00:00 TS -13.9340 183.353 main 413 413 P________PP_P_ SH161975 -13.9477 -176.680 -1 -13.9477 -176.680 TC 65 -13.9357 -176.748 4 -13.9050 -176.480 TC 35 5 295
1975024S19178 1975 14 SP MM VAL 1975-01-29 00:00:00 TS -13.8706 183.147 55 980 wellington main 429 422 O_______OOO_O_ jtwc_sh SH161975 -13.9000 -177.000 -1 -13.8000 -176.500 55 980 -13.9000 183.000 TC 65 -13.9000 -177.000 4 -13.8000 -176.500 TC 35 2 230
1975024S19178 1975 14 SP MM VAL 1975-01-29 03:00:00 TS -14.0928 183.159 main 425 407 P_______PPP_P_ SH161975 -14.1474 -177.003 -1 -14.0531 -176.512 57 977 -14.1474 -177.003 TC 65 -14.0986 -177.022 4 -13.9975 -176.500 TC 45 5 171
1975024S19178 1975 14 SP MM VAL 1975-01-29 06:00:00 TS -14.4023 183.227 main 407 396 O_______POP_O_ jtwc_sh SH161975 -14.5000 -176.900 -1 -14.2950 -176.530 60 975 -14.5000 183.100 TC 65 -14.3898 -176.973 4 -14.3000 -176.500 TC 55 6 171
1975024S19178 1975 14 SP MM VAL 1975-01-29 09:00:00 TS -14.6601 183.251 main 401 382 P_______PPP_P_ SH161975 -14.7800 -176.870 -1 -14.5144 -176.557 62 972 -14.7800 -176.870 TC 65 -14.7111 -176.913 4 -14.5150 -176.535 TC 60 5 182
1975024S19178 1975 14 SP MM VAL 1975-01-29 12:00:00 TS -14.8800 183.220 65 970 wellington main 382 368 O_______OOO_O_ jtwc_sh SH161975 -15.0000 -176.900 -1 -14.7000 -176.600 65 970 -15.0000 183.100 TC 65 -15.0000 -176.900 4 -14.7000 -176.600 TC 65 4 200
1975024S19178 1975 14 SP MM VAL 1975-01-29 15:00:00 TS -15.0206 183.116 main 368 354 P_______PPP_P_ SH161975 -15.1150 -177.020 -1 -14.8471 -176.662 68 966 -15.1150 -177.020 TC 65 -15.1682 -177.025 4 -14.8575 -176.693 TC 67 4 223
1975024S19178 1975 14 SP MM VAL 1975-01-29 18:00:00 TS -15.1345 182.969 main 354 326 O_______POP_O_ jtwc_sh SH161975 -15.2000 -177.200 -1 -14.9774 -176.748 72 962 -15.2000 182.800 TC 65 -15.2952 -177.205 4 -15.0000 -176.800 TC 70 4 230
1975024S19178 1975 14 SP MM VAL 1975-01-29 21:00:00 TS -15.2692 182.810 main 326 302 P_______PPP_P_ SH161975 -15.3500 -177.400 -1 -15.1190 -176.859 76 958 -15.3500 -177.400 TC 65 -15.3995 -177.407 4 -15.1275 -176.885 TC 72 4 228
1975024S19178 1975 14 SP MM VAL 1975-01-30 00:00:00 TS -15.4200 182.640 80 955 wellington main 302 286 O_______OOO_O_ jtwc_sh SH161975 -15.5000 -177.600 -1 -15.3000 -177.000 80 955 -15.5000 182.400 TC 65 -15.5000 -177.600 4 -15.3000 -177.000 TC 75 5 225
1975024S19178 1975 14 SP MM VAL 1975-01-30 03:00:00 TS -15.5910 182.478 main 286 260 P_______PPP_P_ SH161975 -15.6000 -177.765 -1 -15.5733 -177.191 80 955 -15.6000 -177.765 TC 65 -15.6044 -177.703 4 -15.5775 -177.185 TC 77 5 221
1975024S19178 1975 14 SP MM VAL 1975-01-30 06:00:00 TS -15.7795 182.319 main 260 246 O_______POP_O_ jtwc_sh SH161975 -15.7000 -177.900 -1 -15.8852 -177.407 80 955 -15.7000 182.100 TC 65 -15.7120 -177.798 4 -15.9000 -177.400 TC 80 5 216
1975024S19178 1975 14 SP MM VAL 1975-01-30 09:00:00 TS -15.9826 182.181 main 246 224 P_______PPP_P_ SH161975 -15.8274 -177.970 -1 -16.2045 -177.619 80 955 -15.8274 -177.970 TC 65 -15.8387 -177.919 4 -16.2150 -177.615 TC 82 5 214
1975024S19178 1975 14 SP MM VAL 1975-01-30 12:00:00 TS -16.2000 182.020 80 955 wellington main 224 204 O_______OOO_O_ jtwc_sh SH161975 -16.0000 -178.100 -1 -16.5000 -177.800 80 955 -16.0000 181.900 TC 65 -16.0000 -178.100 4 -16.5000 -177.800 TC 85 6 222
1975024S19178 1975 14 SP MM VAL 1975-01-30 15:00:00 TS -16.4265 181.770 main 204 171 P_______PPP_P_ SH161975 -16.2351 -178.412 -1 -16.7327 -177.915 78 956 -16.2351 -178.412 TC 65 -16.2149 -178.486 4 -16.7150 -177.923 TC 87 7 227
1975024S19178 1975 14 SP MM VAL 1975-01-30 18:00:00 TS -16.6602 181.497 main 170 138 O_______POP_O_ jtwc_sh SH161975 -16.5000 -178.800 -1 -16.9374 -177.995 77 957 -16.5000 181.200 TC 65 -16.4635 -178.918 4 -16.9000 -178.000 TC 90 7 228
1975024S19178 1975 14 SP MM VAL 1975-01-30 21:00:00 TS -16.8923 181.224 main 138 129 P_______PPP_P_ SH161975 -16.7501 -179.240 -1 -17.1234 -178.053 76 958 -16.7501 -179.240 TC 65 -16.7303 -179.292 4 -17.1075 -178.058 TC 95 6 222
1975024S19178 1975 14 SP MM VAL 1975-01-31 00:00:00 TS -17.1200 181.060 75 960 wellington main 132 132 O_______OOO_O_ jtwc_sh SH161975 -17.0000 -179.500 -1 -17.3000 -178.100 75 960 -17.0000 180.500 TC 65 -17.0000 -179.500 4 -17.3000 -178.100 TC 100 5 191
1975024S19178 1975 14 SP MM VAL 1975-01-31 03:00:00 TS -17.3349 181.134 main 139 139 P_______PPP_P_ SH161975 -17.2500 -179.348 -1 -17.4781 -178.145 75 960 -17.2500 -179.348 TC 65 -17.2463 -179.341 4 -17.4500 -178.150 TC 102 5 150
1975024S19178 1975 14 SP MM VAL 1975-01-31 06:00:00 TS -17.5486 181.319 main 168 168 O_______POP_O_ jtwc_sh SH161975 -17.5000 -179.000 -1 -17.6499 -178.185 75 960 -17.5000 181.000 TC 65 -17.4932 -179.020 4 -17.6000 -178.200 TC 105 6 141
1975024S19178 1975 14 SP MM VAL 1975-01-31 09:00:00 TS -17.7716 181.510 main 203 203 P_______PPP_P_ SH161975 -17.7501 -178.655 -1 -17.8218 -178.233 75 960 -17.7501 -178.655 TC 65 -17.7434 -178.663 4 -17.7925 -178.243 TC 107 5 146
1975024S19178 1975 14 SP MM VAL 1975-01-31 12:00:00 TS -18.0000 181.640 75 960 wellington main 224 224 O_______OOO_O_ jtwc_sh SH161975 -18.0000 -178.400 -1 -18.0000 -178.300 75 960 -18.0000 181.600 TC 65 -18.0000 -178.400 4 -18.0000 -178.300 TC 110 5 167
1975024S19178 1975 14 SP MM VAL 1975-01-31 15:00:00 TS -18.2298 181.621 main 238 238 P_______PPP_P_ SH161975 -18.2424 -178.375 -1 -18.1886 -178.375 73 961 -18.2424 -178.375 TC 65 -18.2756 -178.385 4 -18.2000 -178.385 TC 112 5 195
1975024S19178 1975 14 SP MM VAL 1975-01-31 18:00:00 TS -18.4684 181.508 main 254 254 O_______POP_O_ jtwc_sh SH161975 -18.5000 -178.500 -1 -18.3847 -178.475 72 962 -18.5000 181.500 TC 65 -18.5571 -178.484 4 -18.4000 -178.500 TC 115 6 208
1975024S19178 1975 14 SP MM VAL 1975-01-31 21:00:00 TS -18.7232 181.351 main 265 259 P_______PPP_P_ SH161975 -18.8000 -178.670 -1 -18.5885 -178.613 71 963 -18.8000 -178.670 TC 65 -18.8351 -178.667 4 -18.5925 -178.628 TC 117 6 214
1975024S19178 1975 14 SP MM VAL 1975-02-01 00:00:00 TS -18.9800 181.140 70 965 wellington main 272 262 O_______OOO_O_ jtwc_sh SH161975 -19.1000 -178.900 -1 -18.8000 -178.800 70 965 -19.1000 181.100 TC 65 -19.1000 -178.900 4 -18.8000 -178.800 TC 120 7 219
1975024S19178 1975 14 SP MM VAL 1975-02-01 03:00:00 TS -19.2370 180.918 main 262 255 P_______PPP_P_ SH161975 -19.3650 -179.135 -1 -19.0416 -179.001 70 965 -19.3650 -179.135 TC 65 -19.3637 -179.119 4 -19.0499 -179.020 TC 120 7 223
1975024S19178 1975 14 SP MM VAL 1975-02-01 06:00:00 TS -19.4793 180.652 main 262 245 O_______POP_O_ jtwc_sh SH161975 -19.6000 -179.400 -1 -19.2865 -179.257 70 965 -19.6000 180.600 TC 65 -19.6099 -179.382 4 -19.3000 -179.300 TC 120 7 229
1975024S19178 1975 14 SP MM VAL 1975-02-01 09:00:00 TS -19.7013 180.351 main 253 240 P_______PPP_P_ SH161975 -19.8225 -179.693 -1 -19.5132 -179.585 70 965 -19.8225 -179.693 TC 65 -19.8261 -179.679 4 -19.5222 -179.598 TC 120 7 237
1975024S19178 1975 14 SP MM VAL 1975-02-01 12:00:00 TS -19.8800 180.000 70 965 wellington main 243 232 O_______OOO_O_ jtwc_sh SH161975 -20.0000 180.000 -1 -19.7000 180.000 70 965 -20.0000 180.000 TC 65 -20.0000 180.000 4 -19.7000 180.000 TC 120 8 247
1975024S19178 1975 14 SP MM VAL 1975-02-01 15:00:00 TS -19.9926 179.612 main 232 221 P_______PPP_P_ SH161975 -20.1224 179.715 -1 -19.8068 179.469 73 960 -20.1224 179.715 TC 65 -20.0887 179.723 4 -19.8226 179.437 TC 120 8 257
1975024S19178 1975 14 SP MM VAL 1975-02-01 18:00:00 TS -20.0629 179.175 main 227 208 O_______POP_O_ jtwc_sh SH161975 -20.2000 179.400 -1 -19.8738 178.859 77 955 -20.2000 179.400 TC 65 -20.1409 179.418 4 -19.9000 178.800 TC 120 9 262
1975024S19178 1975 14 SP MM VAL 1975-02-01 21:00:00 TS -20.1091 178.714 main 208 202 P_______PPP_P_ SH161975 -20.2347 179.052 -1 -19.9286 178.219 81 950 -20.2347 179.052 TC 65 -20.1977 179.054 4 -19.9499 178.192 TC 120 9 263
1975024S19178 1975 14 SP MM VAL 1975-02-02 00:00:00 TS -20.1800 178.200 85 945 wellington main 212 212 O_______OOO_O_ jtwc_sh SH161975 -20.3000 178.600 -1 -20.0000 177.600 85 945 -20.3000 178.600 TC 65 -20.3000 178.600 4 -20.0000 177.600 TC 120 11 259
1975024S19178 1975 14 SP MM VAL 1975-02-02 03:00:00 TS -20.3133 177.613 main 225 225 P_______PPP_P_ SH161975 -20.4625 177.995 -1 -20.0833 177.046 81 950 -20.4625 177.995 TC 65 -20.4805 178.002 4 -20.0774 177.027 TC 117 12 254
1975024S19178 1975 14 SP MM VAL 1975-02-02 06:00:00 TS -20.5012 176.988 main 263 263 O_______POP_O_ jtwc_sh SH161975 -20.7000 177.300 -1 -20.1946 176.524 77 955 -20.7000 177.300 TC 65 -20.7116 177.318 4 -20.2000 176.500 TC 115 12 250
1975024S19178 1975 14 SP MM VAL 1975-02-02 09:00:00 TS -20.7310 176.369 main 305 305 P_______PPP_P_ SH161975 -20.9775 176.592 -1 -20.3585 176.040 73 960 -20.9775 176.592 TC 65 -20.9867 176.599 4 -20.3549 176.020 TC 115 12 245
1975024S19178 1975 14 SP MM VAL 1975-02-02 12:00:00 TS -21.0200 175.780 70 965 wellington main 360 360 O_______OOO_O_ jtwc_sh SH161975 -21.3000 175.900 -1 -20.6000 175.600 70 965 -21.3000 175.900 TC 65 -21.3000 175.900 4 -20.6000 175.600 TC 115 12 239
1975024S19178 1975 14 SP MM VAL 1975-02-02 15:00:00 TS -21.3632 175.246 main 429 429 P_______PPP_P_ SH161975 -21.6347 175.277 -1 -20.9493 175.207 70 965 -21.6347 175.277 TC 65 -21.6350 175.236 4 -20.9623 175.235 TC 112 12 232
1975024S19178 1975 14 SP MM VAL 1975-02-02 18:00:00 TS -21.7559 174.753 main 489 489 O_______POP_O_ jtwc_sh SH161975 -22.0000 174.700 -1 -21.3741 174.855 70 965 -22.0000 174.700 TC 65 -22.0053 174.609 4 -21.4000 174.900 TC 110 12 228
1975024S19178 1975 14 SP MM VAL 1975-02-02 21:00:00 TS -22.1740 174.267 main 555 555 P_______PPP_P_ SH161975 -22.3926 174.105 -1 -21.8369 174.525 70 965 -22.3926 174.105 TC 65 -22.3978 174.052 4 -21.8499 174.550 TC 107 12 225
1975024S19178 1975 14 SP MM VAL 1975-02-03 00:00:00 TS -22.6000 173.840 70 965 wellington main 621 621 O_______OOO_O_ jtwc_sh SH161975 -22.8000 173.600 -1 -22.3000 174.200 70 965 -22.8000 173.600 TC 65 -22.8000 173.600 4 -22.3000 174.200 TC 105 11 222
1975024S19178 1975 14 SP MM VAL 1975-02-03 03:00:00 TS -22.9964 173.458 main 671 644 P_______PPP_P_ SH161975 -23.1998 173.232 -1 -22.6995 173.754 71 963 -23.1998 173.232 TC 50 -23.1754 173.223 4 -22.7074 173.850 TC 102 10 219
1975024S19178 1975 14 SP MM VAL 1975-02-03 06:00:00 TS -23.3908 173.157 main 646 623 O_______POP_O_ jtwc_sh SH161975 -23.6000 173.000 -1 -23.0931 173.323 72 962 -23.6000 173.000 TC 35 -23.5611 172.960 4 -23.1000 173.500 TC 100 9 212
1975024S19178 1975 14 SP MM VAL 1975-02-03 09:00:00 TS -23.7867 172.915 main 626 622 P_______PPP_P_ SH161975 -23.9924 172.847 -1 -23.4900 172.980 73 961 -23.9924 172.847 TC 35 -23.9663 172.818 4 -23.4927 173.083 TC 100 9 202
1975024S19178 1975 14 SP MM VAL 1975-02-03 12:00:00 TS -24.2000 172.800 75 960 wellington main 629 629 O_______OOO_O_ jtwc_sh SH161975 -24.4000 172.800 -1 -23.9000 172.800 75 960 -24.4000 172.800 TC 35 -24.4000 172.800 2 -23.9000 172.800 TC 100 8 188
1975024S19178 1975 14 SP MM VAL 1975-02-03 15:00:00 TS -24.6172 172.784 main 644 644 P_______PPP_P_ SH161975 -24.8273 172.776 -1 -24.2768 172.783 75 960 -24.8273 172.776 TC 35 -24.8126 172.801 2 -24.3422 172.787 TC 97 9 172
1975024S19178 1975 14 SP MM VAL 1975-02-03 18:00:00 TS -25.0677 172.936 main 676 676 O_______POP_O_ jtwc_sh SH161975 -25.3000 172.900 -1 -24.6769 172.946 75 960 -25.3000 172.900 TC 35 -25.2619 172.935 2 -24.8000 173.000 TC 95 10 156
1975024S19178 1975 14 SP MM VAL 1975-02-03 21:00:00 TS -25.5449 173.233 main 724 724 P_______PPP_P_ SH161975 -25.8044 173.181 -1 -25.1387 173.285 75 960 -25.8044 173.181 TC 35 -25.7804 173.226 2 -25.1969 173.289 TC 92 13 145
1975024S19178 1975 14 SP MM VAL 1975-02-04 00:00:00 TS -26.1200 173.740 75 960 wellington main 800 800 O_______OOO_O_ jtwc_sh SH161975 -26.4000 173.700 -1 -25.7000 173.800 75 960 -26.4000 173.700 TC 35 -26.4000 173.700 2 -25.7000 173.800 TC 90 17 139
1975024S19178 1975 14 SP MM VAL 1975-02-04 03:00:00 TS -26.8224 174.471 main 870 800 P_______PPP_P_ SH161975 -27.0904 174.475 -1 -26.3642 174.450 76 958 -27.0904 174.475 TC 35 -27.1191 174.372 2 -26.4480 174.582 TC 87 21 136
1975024S19178 1975 14 SP MM VAL 1975-02-04 06:00:00 TS -27.6334 175.359 main 802 744 O_______POP_O_ jtwc_sh SH161975 -27.9000 175.400 -1 -27.1292 175.271 77 957 -27.9000 175.400 TC 35 -27.9380 175.226 2 -27.3000 175.500 TC 85 23 137
1975024S19178 1975 14 SP MM VAL 1975-02-04 09:00:00 TS -28.4989 176.259 main 738 687 P_______PPP_P_ SH161975 -28.8045 176.286 -1 -27.9792 176.206 78 956 -28.8045 176.286 TC 35 -28.8375 176.193 2 -28.0689 176.323 TC 82 24 138
1975024S19178 1975 14 SP MM VAL 1975-02-04 12:00:00 TS -29.4400 177.200 80 955 wellington main 692 648 O_______OOO_O_ jtwc_sh SH161975 -29.8000 177.200 -1 -28.9000 177.200 80 955 -29.8000 177.200 TC 35 -29.8000 177.200 2 -28.9000 177.200 TC 80 25 140
1975024S19178 1975 14 SP MM VAL 1975-02-04 15:00:00 TS -30.4299 178.126 main 648 615 P_______PPP_P_ SH161975 -30.8343 178.137 -1 -29.8348 178.045 80 955 -30.8343 178.137 TC 35 -30.7836 178.083 2 -29.8626 178.228 TC 77 26 141
1975024S19178 1975 14 SP MM VAL 1975-02-04 18:00:00 TS -31.4724 179.091 main 614 588 O_______POP_O_ jtwc_sh SH161975 -31.9000 179.100 -1 -30.8370 178.955 80 955 -31.9000 179.100 TC 35 -31.8248 179.001 2 -30.9000 179.300 TC 75 27 142
1975024S19178 1975 14 SP MM VAL 1975-02-04 21:00:00 TS -32.5209 180.059 main 591 515 P_______PPP_P_ SH161975 -32.9482 -179.949 -1 -31.8961 -179.988 80 955 -32.9482 -179.949 TC 35 -32.9039 179.993 2 -31.9079 -179.811 TC 72 28 140
1975024S19178 1975 14 SP MM VAL 1975-02-05 00:00:00 TS -33.6000 181.180 80 955 wellington main 513 480 O_______OOO_O_ jtwc_sh SH161975 -34.0000 -178.900 -1 -33.0000 -178.700 80 955 -34.0000 181.100 TC 35 -34.0000 -178.900 2 -33.0000 -178.700 TC 70 30 136
1975024S19178 1975 14 SP MM VAL 1975-02-05 03:00:00 TS -34.7136 182.576 main 489 487 P_______PPP_P_ SH161975 -35.0413 -177.679 -1 -34.1324 -177.112 76 958 -35.0413 -177.679 TC 30 -35.0943 -177.647 2 -34.2587 -177.002 TC 67 33 132
1975024S19178 1975 14 SP MM VAL 1975-02-05 06:00:00 TS -35.8305 184.177 main 540 540 O_______POP_O_ jtwc_sh SH161975 -36.1000 -176.300 -1 -35.2732 -175.257 72 962 -36.1000 183.700 TC 25 -36.1792 -176.260 2 -35.5000 -175.000 TC 65 35 129
1975024S19178 1975 14 SP MM VAL 1975-02-05 09:00:00 TS -36.9208 185.891 main 649 649 P_______PPP_P_ SH161975 -37.1943 -174.795 -1 -36.4020 -173.196 68 966 -37.1943 -174.795 TC 25 -37.2493 -174.768 2 -36.5642 -172.993 TC 65 35 128
1975024S19178 1975 14 SP MM VAL 1975-02-05 12:00:00 TS -37.9800 187.680 65 970 wellington main 797 O_______OOO_O_ jtwc_sh SH161975 -38.3000 -173.200 -1 -37.5000 -171.000 65 970 -38.3000 186.800 TC 25 -38.3000 -173.200 6 -37.5000 -171.000 TC 65 35 127

デジタル台風データ・検索

IBTrACS Databaseについて

本データベースは、米国NOAAが公開する1842年以降の世界の熱帯低気圧のベストトラックデータアーカイブInternational Best Track Archive for Climate Stewardship (IBTrACS)を、ウェブで閲覧しやすい形式に変換したものです。

最終更新日:2021-10-08